Time;durP1;ratioP1;P1;durP2;ratioP2;P2;SDS_P1;SDS_P2;PMS_P1;PMS_P2;Temp;Humidity;BMP_temperature;BMP_pressure;BME280_temperature;BME280_humidity;BME280_pressure;Samples;Min_cycle;Max_cycle;Signal;HPM_P1;HPM_P2
2022/02/23 00:01:16;;;;;;;;;7.33;5.00;;;;;-146.37;100.00;59337.28;6353497;22;8743;-84
2022/02/23 00:03:42;;;;;;;;;5.00;3.50;;;;;-146.37;100.00;59337.28;6328845;22;8731;-85
2022/02/23 00:06:07;;;;;;;;;5.33;4.00;;;;;-146.37;100.00;59337.28;6354961;22;8764;-84
2022/02/23 00:08:33;;;;;;;;;2.00;2.00;;;;;-146.37;100.00;59337.28;6330192;22;8790;-84
2022/02/23 00:10:59;;;;;;;;;3.75;3.75;;;;;-146.37;100.00;59337.28;6330539;22;8720;-84
2022/02/23 00:13:27;;;;;;;;;4.75;3.75;;;;;-146.37;100.00;59337.28;6354537;22;9699;-85
2022/02/23 00:15:54;;;;;;;;;2.75;2.75;;;;;-146.37;100.00;59337.28;6328091;22;8760;-85
2022/02/23 00:18:20;;;;;;;;;3.75;3.75;;;;;-146.37;100.00;59337.28;6353157;22;8806;-84
2022/02/23 00:20:46;;;;;;;;;7.00;4.00;;;;;-146.37;100.00;59337.28;6353889;22;8735;-85
2022/02/23 00:23:12;;;;;;;;;4.00;4.00;;;;;-146.37;100.00;59337.28;6327711;22;8679;-85
2022/02/23 00:25:38;;;;;;;;;3.00;2.33;;;;;-146.37;100.00;59337.28;6353621;22;8779;-84
2022/02/23 00:28:04;;;;;;;;;5.00;4.25;;;;;-146.37;100.00;59337.28;6354686;22;8739;-85
2022/02/23 00:30:30;;;;;;;;;5.00;4.75;;;;;-146.37;100.00;59337.28;6354015;22;8747;-84
2022/02/23 00:32:56;;;;;;;;;4.00;4.00;;;;;-146.37;100.00;59337.28;6354220;22;8764;-86
2022/02/23 00:35:22;;;;;;;;;3.75;3.75;;;;;-146.37;100.00;59337.28;6331161;22;8692;-84
2022/02/23 00:37:47;;;;;;;;;7.67;6.33;;;;;-146.37;100.00;59337.28;6330252;22;8719;-85
2022/02/23 00:40:14;;;;;;;;;4.33;4.00;;;;;-146.37;100.00;59337.28;6355351;22;8781;-85
2022/02/23 00:42:39;;;;;;;;;6.75;4.00;;;;;-146.37;100.00;59337.28;6353879;22;8738;-84
2022/02/23 00:45:05;;;;;;;;;7.67;2.00;;;;;-146.37;100.00;59337.28;6354567;22;8760;-85
2022/02/23 00:47:31;;;;;;;;;4.50;3.75;;;;;-146.37;100.00;59337.28;6355266;22;9490;-85
2022/02/23 00:49:57;;;;;;;;;5.00;4.00;;;;;-146.37;100.00;59337.28;6356964;22;8724;-85
2022/02/23 00:52:22;;;;;;;;;4.33;3.33;;;;;-146.37;100.00;59337.28;6355194;22;8759;-84
2022/02/23 00:54:48;;;;;;;;;8.33;6.67;;;;;-146.37;100.00;59337.28;6329129;22;8964;-85
2022/02/23 00:57:15;;;;;;;;;5.00;3.00;;;;;-146.37;100.00;59337.28;6355266;22;8755;-84
2022/02/23 00:59:44;;;;;;;;;3.75;3.75;;;;;-146.37;100.00;59337.28;6330647;22;8770;-84
2022/02/23 01:02:10;;;;;;;;;3.25;2.75;;;;;-146.37;100.00;59337.28;6355148;22;8767;-85
2022/02/23 01:04:36;;;;;;;;;4.67;4.67;;;;;-146.37;100.00;59337.28;6354725;22;8743;-84
2022/02/23 01:07:02;;;;;;;;;3.00;3.00;;;;;-146.37;100.00;59337.28;6329079;22;11408;-84
2022/02/23 01:09:27;;;;;;;;;5.00;3.33;;;;;-146.37;100.00;59337.28;6355255;22;8744;-86
2022/02/23 01:11:52;;;;;;;;;3.33;3.33;;;;;-146.37;100.00;59337.28;6328972;22;11458;-85
2022/02/23 01:14:18;;;;;;;;;8.33;4.00;;;;;-146.37;100.00;59337.28;6330802;22;8853;-84
2022/02/23 01:16:43;;;;;;;;;3.67;2.67;;;;;-146.37;100.00;59337.28;6355170;22;8752;-84
2022/02/23 01:19:09;;;;;;;;;4.67;4.00;;;;;-146.37;100.00;59337.28;6333552;22;8700;-85
2022/02/23 01:21:35;;;;;;;;;10.00;4.00;;;;;-146.37;100.00;59337.28;6358733;22;8692;-85
2022/02/23 01:24:00;;;;;;;;;5.00;3.00;;;;;-146.37;100.00;59337.28;6331950;22;8766;-84
2022/02/23 01:26:26;;;;;;;;;4.00;2.67;;;;;-146.37;100.00;59337.28;6357058;22;8712;-84
2022/02/23 01:28:51;;;;;;;;;3.00;2.00;;;;;-146.37;100.00;59337.28;6332393;22;8755;-84
2022/02/23 01:31:17;;;;;;;;;4.00;3.00;;;;;-146.37;100.00;59337.28;6331568;22;8772;-86
2022/02/23 01:33:45;;;;;;;;;3.33;3.33;;;;;-146.37;100.00;59337.28;6331336;22;8798;-86
2022/02/23 01:36:11;;;;;;;;;5.25;3.25;;;;;-146.37;100.00;59337.28;6330907;22;8774;-86
2022/02/23 01:38:36;;;;;;;;;2.33;1.00;;;;;-146.37;100.00;59337.28;6329579;22;8684;-86
2022/02/23 01:41:02;;;;;;;;;6.67;6.67;;;;;-146.37;100.00;59337.28;6331515;22;8778;-84
2022/02/23 01:43:28;;;;;;;;;5.00;5.00;;;;;-146.37;100.00;59337.28;6330060;22;9977;-84
2022/02/23 01:45:54;;;;;;;;;6.75;4.75;;;;;-146.37;100.00;59337.28;6331465;22;8676;-84
2022/02/23 01:48:20;;;;;;;;;7.00;5.00;;;;;-146.37;100.00;59337.28;6355795;22;8747;-84
2022/02/23 01:50:46;;;;;;;;;4.00;4.00;;;;;-146.37;100.00;59337.28;6355833;22;11443;-85
2022/02/23 01:53:14;;;;;;;;;5.50;5.50;;;;;-146.37;100.00;59337.28;6328792;22;8751;-85
2022/02/23 01:55:39;;;;;;;;;5.00;5.00;;;;;-146.37;100.00;59337.28;6356992;22;8771;-85
2022/02/23 01:58:05;;;;;;;;;5.00;2.67;;;;;-146.37;100.00;59337.28;6356331;22;8744;-84
2022/02/23 02:00:31;;;;;;;;;7.67;5.00;;;;;-146.37;100.00;59337.28;6330453;22;9565;-84
2022/02/23 02:02:57;;;;;;;;;4.75;4.75;;;;;-146.37;100.00;59337.28;6329697;22;8722;-85
2022/02/23 02:05:22;;;;;;;;;3.67;2.67;;;;;-146.37;100.00;59337.28;6329237;22;8787;-84
2022/02/23 02:07:48;;;;;;;;;5.00;5.00;;;;;-146.37;100.00;59337.28;6329348;22;8776;-85
2022/02/23 02:10:14;;;;;;;;;5.00;4.33;;;;;-146.37;100.00;59337.28;6329004;22;8770;-86
2022/02/23 02:12:41;;;;;;;;;3.33;3.00;;;;;-146.37;100.00;59337.28;6330958;22;8763;-85
2022/02/23 02:15:07;;;;;;;;;5.50;4.50;;;;;-146.37;100.00;59337.28;6331080;22;8768;-84
2022/02/23 02:17:32;;;;;;;;;3.50;3.00;;;;;-146.37;100.00;59337.28;6354999;22;8722;-84
2022/02/23 02:19:58;;;;;;;;;7.00;7.00;;;;;-146.37;100.00;59337.28;6354620;22;8759;-85
2022/02/23 02:22:28;;;;;;;;;3.67;3.00;;;;;-146.37;100.00;59337.28;6354981;22;9289;-85
2022/02/23 02:24:56;;;;;;;;;6.00;4.00;;;;;-146.37;100.00;59337.28;6330651;22;8692;-84
2022/02/23 02:27:22;;;;;;;;;9.25;5.25;;;;;-146.37;100.00;59337.28;6352544;22;8740;-85
2022/02/23 02:29:48;;;;;;;;;4.50;4.25;;;;;-146.37;100.00;59337.28;6327655;22;8889;-84
2022/02/23 02:32:17;;;;;;;;;8.00;7.33;;;;;-146.37;100.00;59337.28;6328119;22;8752;-85
2022/02/23 02:34:43;;;;;;;;;4.50;4.00;;;;;-146.37;100.00;59337.28;6326807;22;8759;-84
2022/02/23 02:37:16;;;;;;;;;6.25;4.75;;;;;-146.37;100.00;59337.28;6328821;22;8731;-84
2022/02/23 02:39:42;;;;;;;;;9.75;5.00;;;;;-146.37;100.00;59337.28;6355771;22;8696;-85
2022/02/23 02:42:10;;;;;;;;;7.33;7.00;;;;;-146.37;100.00;59337.28;6329786;22;8759;-84
2022/02/23 02:44:36;;;;;;;;;3.50;3.25;;;;;-146.37;100.00;59337.28;6354705;22;11411;-84
2022/02/23 02:47:02;;;;;;;;;5.25;3.75;;;;;-146.37;100.00;59337.28;6328999;22;8730;-86
2022/02/23 02:49:27;;;;;;;;;9.33;5.00;;;;;-146.37;100.00;59337.28;6354071;22;8668;-85
2022/02/23 02:51:53;;;;;;;;;3.00;3.00;;;;;-146.37;100.00;59337.28;6328121;22;8771;-84
2022/02/23 02:54:25;;;;;;;;;8.33;3.33;;;;;-146.37;100.00;59337.28;6324509;22;8799;-86
2022/02/23 02:56:51;;;;;;;;;4.00;4.00;;;;;-146.37;100.00;59337.28;6325801;22;9736;-85
2022/02/23 02:59:17;;;;;;;;;10.33;5.00;;;;;-146.37;100.00;59337.28;6327540;22;8752;-84
2022/02/23 03:01:43;;;;;;;;;4.67;3.67;;;;;-146.37;100.00;59337.28;6327561;22;8755;-85
2022/02/23 03:04:10;;;;;;;;;4.00;2.00;;;;;-146.37;100.00;59337.28;6328196;22;8762;-83
2022/02/23 03:06:36;;;;;;;;;11.50;4.25;;;;;-146.37;100.00;59337.28;6304753;22;8766;-85
2022/02/23 03:09:04;;;;;;;;;3.33;3.00;;;;;-146.37;100.00;59337.28;6330278;22;8676;-85
2022/02/23 03:11:29;;;;;;;;;10.25;7.50;;;;;-146.37;100.00;59337.28;6330517;22;8767;-85
2022/02/23 03:13:55;;;;;;;;;6.67;5.00;;;;;-146.37;100.00;59337.28;6331024;22;8739;-85
2022/02/23 03:16:21;;;;;;;;;3.33;3.00;;;;;-146.37;100.00;59337.28;6328164;22;8797;-87
2022/02/23 03:18:47;;;;;;;;;4.50;4.25;;;;;-146.37;100.00;59337.28;6325775;22;8752;-84
2022/02/23 03:21:13;;;;;;;;;3.00;3.00;;;;;-146.37;100.00;59337.28;6327591;22;8762;-85
2022/02/23 03:24:28;;;;;;;;;8.00;7.00;;;;;-146.37;100.00;59337.28;6354843;22;8770;-86
2022/02/23 03:26:54;;;;;;;;;6.75;6.75;;;;;-146.37;100.00;59337.28;6330443;22;8709;-85
2022/02/23 03:29:19;;;;;;;;;6.33;3.67;;;;;-146.37;100.00;59337.28;6354456;22;8743;-84
2022/02/23 03:31:44;;;;;;;;;4.00;4.00;;;;;-146.37;100.00;59337.28;6327338;22;8771;-85
2022/02/23 03:34:10;;;;;;;;;4.67;4.33;;;;;-146.37;100.00;59337.28;6326777;22;8841;-84
2022/02/23 03:36:36;;;;;;;;;7.00;4.33;;;;;-146.37;100.00;59337.28;6326878;22;8739;-84
2022/02/23 03:39:03;;;;;;;;;6.67;5.33;;;;;-146.37;100.00;59337.28;6326831;22;8735;-84
2022/02/23 03:41:29;;;;;;;;;8.75;4.00;;;;;-146.37;100.00;59337.28;6329356;22;8768;-84
2022/02/23 03:43:54;;;;;;;;;5.67;3.67;;;;;-146.37;100.00;59337.28;6328920;22;9491;-84
2022/02/23 03:46:20;;;;;;;;;7.00;7.00;;;;;-146.37;100.00;59337.28;6329709;22;8770;-85
2022/02/23 03:48:45;;;;;;;;;7.00;3.00;;;;;-146.37;100.00;59337.28;6327390;22;8794;-84
2022/02/23 03:51:11;;;;;;;;;4.00;4.00;;;;;-146.37;100.00;59337.28;6326989;22;8779;-85
2022/02/23 03:53:37;;;;;;;;;3.25;3.25;;;;;-146.37;100.00;59337.28;6326310;22;8772;-84
2022/02/23 03:56:03;;;;;;;;;7.33;3.67;;;;;-146.37;100.00;59337.28;6300897;22;8838;-85
2022/02/23 03:58:28;;;;;;;;;4.00;4.00;;;;;-146.37;100.00;59337.28;6300125;22;8683;-85
2022/02/23 04:00:54;;;;;;;;;7.00;3.67;;;;;-146.37;100.00;59337.28;6329379;22;10499;-84
2022/02/23 04:03:19;;;;;;;;;8.67;4.00;;;;;-146.37;100.00;59337.28;6329302;22;8756;-84
2022/02/23 04:05:45;;;;;;;;;4.67;3.00;;;;;-146.37;100.00;59337.28;6330042;22;8756;-86
2022/02/23 04:08:12;;;;;;;;;5.67;4.00;;;;;-146.37;100.00;59337.28;6301469;22;8818;-85
2022/02/23 04:10:38;;;;;;;;;6.00;4.00;;;;;-146.37;100.00;59337.28;6326330;22;8677;-83
2022/02/23 04:13:04;;;;;;;;;7.00;6.67;;;;;-146.37;100.00;59337.28;6328997;22;8725;-84
2022/02/23 04:15:29;;;;;;;;;3.33;3.33;;;;;-146.37;100.00;59337.28;6326546;22;8784;-84
2022/02/23 04:17:55;;;;;;;;;6.67;5.33;;;;;-146.37;100.00;59337.28;6330717;22;8760;-84
2022/02/23 04:20:20;;;;;;;;;7.33;3.00;;;;;-146.37;100.00;59337.28;6302468;22;8768;-84
2022/02/23 04:22:46;;;;;;;;;5.33;3.33;;;;;-146.37;100.00;59337.28;6328441;22;8752;-85
2022/02/23 04:25:12;;;;;;;;;6.33;4.00;;;;;-146.37;100.00;59337.28;6329876;22;8748;-85
2022/02/23 04:27:39;;;;;;;;;5.00;3.67;;;;;-146.37;100.00;59337.28;6301070;22;8697;-84
2022/02/23 04:30:06;;;;;;;;;9.25;4.50;;;;;-146.37;100.00;59337.28;6327915;22;8677;-86
2022/02/23 04:32:33;;;;;;;;;4.50;4.00;;;;;-146.37;100.00;59337.28;6327536;22;8685;-84
2022/02/23 04:34:58;;;;;;;;;5.00;3.25;;;;;-146.37;100.00;59337.28;6327543;22;8861;-84
2022/02/23 04:37:25;;;;;;;;;9.67;5.33;;;;;-146.37;100.00;59337.28;6299881;22;8781;-85
2022/02/23 04:39:51;;;;;;;;;7.25;3.00;;;;;-146.37;100.00;59337.28;6300744;22;8741;-85
2022/02/23 04:42:16;;;;;;;;;3.00;3.00;;;;;-146.37;100.00;59337.28;6328731;22;8735;-84
2022/02/23 04:44:42;;;;;;;;;5.33;3.00;;;;;-146.37;100.00;59337.28;6330621;22;8737;-85
2022/02/23 04:47:07;;;;;;;;;4.00;2.00;;;;;-146.37;100.00;59337.28;6302228;22;9558;-85
2022/02/23 04:49:34;;;;;;;;;9.67;5.33;;;;;-146.37;100.00;59337.28;6330142;22;8882;-84
2022/02/23 04:51:59;;;;;;;;;5.25;5.25;;;;;-146.37;100.00;59337.28;6301374;22;8708;-84
2022/02/23 04:54:25;;;;;;;;;8.33;7.00;;;;;-146.37;100.00;59337.28;6301772;22;8787;-83
2022/02/23 04:56:50;;;;;;;;;4.00;4.00;;;;;-146.37;100.00;59337.28;6328293;22;8756;-85
2022/02/23 04:59:16;;;;;;;;;6.67;6.67;;;;;-146.37;100.00;59337.28;6301953;22;8791;-85
2022/02/23 05:01:41;;;;;;;;;5.33;4.67;;;;;-146.37;100.00;59337.28;6328967;22;8898;-84
2022/02/23 05:04:06;;;;;;;;;3.33;3.00;;;;;-146.37;100.00;59337.28;6305792;22;8787;-87
2022/02/23 05:06:32;;;;;;;;;6.67;5.33;;;;;-146.37;100.00;59337.28;6334196;22;8740;-85
2022/02/23 05:08:57;;;;;;;;;4.00;4.00;;;;;-146.37;100.00;59337.28;6305760;22;8684;-85
2022/02/23 05:11:23;;;;;;;;;8.00;6.67;;;;;-146.37;100.00;59337.28;6332877;22;8728;-86
2022/02/23 05:13:48;;;;;;;;;4.00;3.00;;;;;-146.37;100.00;59337.28;6304997;22;8728;-85
2022/02/23 05:16:14;;;;;;;;;7.00;6.00;;;;;-146.37;100.00;59337.28;6305018;22;8788;-84
2022/02/23 05:18:39;;;;;;;;;6.00;4.00;;;;;-146.37;100.00;59337.28;6328897;22;8766;-83
2022/02/23 05:21:05;;;;;;;;;4.33;4.00;;;;;-146.37;100.00;59337.28;6304340;22;8740;-85
2022/02/23 05:23:31;;;;;;;;;8.67;4.67;;;;;-146.37;100.00;59337.28;6331516;22;8748;-84
2022/02/23 05:25:57;;;;;;;;;6.67;5.00;;;;;-146.37;100.00;59337.28;6332345;22;8759;-86
2022/02/23 05:28:24;;;;;;;;;10.00;8.00;;;;;-146.37;100.00;59337.28;6304839;22;8741;-85
2022/02/23 05:30:49;;;;;;;;;6.00;6.00;;;;;-146.37;100.00;59337.28;6305097;22;9707;-84
2022/02/23 05:33:15;;;;;;;;;8.67;7.00;;;;;-146.37;100.00;59337.28;6333387;22;8748;-86
2022/02/23 05:35:40;;;;;;;;;17.67;12.33;;;;;-146.37;100.00;59337.28;6333932;22;8676;-85
2022/02/23 05:38:06;;;;;;;;;19.33;19.33;;;;;-146.37;100.00;59337.28;6306136;22;8805;-86
2022/02/23 05:40:34;;;;;;;;;16.67;14.33;;;;;-146.37;100.00;59337.28;6303335;22;8725;-84
2022/02/23 05:43:00;;;;;;;;;15.75;14.50;;;;;-146.37;100.00;59337.28;6333145;22;8736;-85
2022/02/23 05:45:26;;;;;;;;;10.00;10.00;;;;;-146.37;100.00;59337.28;6306007;22;8766;-84
2022/02/23 05:47:52;;;;;;;;;10.00;7.00;;;;;-146.37;100.00;59337.28;6334494;22;8736;-84
2022/02/23 05:50:17;;;;;;;;;8.67;7.00;;;;;-146.37;100.00;59337.28;6335685;22;8681;-85
2022/02/23 05:52:44;;;;;;;;;4.33;4.33;;;;;-146.37;100.00;59337.28;6339432;22;8690;-85
2022/02/23 05:55:16;;;;;;;;;9.75;6.25;;;;;-146.37;100.00;59337.28;6362073;22;8736;-84
2022/02/23 05:57:42;;;;;;;;;7.50;6.50;;;;;-146.37;100.00;59337.28;6364250;22;8740;-85
2022/02/23 06:00:08;;;;;;;;;3.00;3.00;;;;;-146.37;100.00;59337.28;6362483;22;8726;-85
2022/02/23 06:05:56;;;;;;;;;7.75;3.75;;;;;-146.37;100.00;59337.28;6365683;22;8767;-84
2022/02/23 06:08:21;;;;;;;;;13.00;7.00;;;;;-146.37;100.00;59337.28;6338274;22;9152;-86
2022/02/23 06:10:47;;;;;;;;;7.00;7.00;;;;;-146.37;100.00;59337.28;6338036;22;8741;-86
2022/02/23 06:13:12;;;;;;;;;4.00;4.00;;;;;-146.37;100.00;59337.28;6364192;22;8686;-84
2022/02/23 06:15:37;;;;;;;;;10.00;9.00;;;;;-146.37;100.00;59337.28;6362309;22;8770;-85
2022/02/23 06:18:03;;;;;;;;;6.33;6.33;;;;;-146.37;100.00;59337.28;6335055;22;8734;-84
2022/02/23 06:20:28;;;;;;;;;6.67;6.67;;;;;-146.37;100.00;59337.28;6362096;22;8760;-85
2022/02/23 06:22:54;;;;;;;;;13.00;8.33;;;;;-146.37;100.00;59337.28;6334592;22;8880;-83
2022/02/23 06:25:19;;;;;;;;;7.67;7.00;;;;;-146.37;100.00;59337.28;6363833;22;9516;-84
2022/02/23 06:27:44;;;;;;;;;10.00;8.67;;;;;-146.37;100.00;59337.28;6363528;22;8742;-85
2022/02/23 06:30:11;;;;;;;;;6.00;6.00;;;;;-146.37;100.00;59337.28;6363979;22;8754;-87
2022/02/23 06:32:37;;;;;;;;;12.25;9.50;;;;;-146.37;100.00;59337.28;6363710;22;8742;-84
2022/02/23 06:35:03;;;;;;;;;8.33;8.00;;;;;-146.37;100.00;59337.28;6335769;22;8754;-85
2022/02/23 06:37:28;;;;;;;;;13.33;10.00;;;;;-146.37;100.00;59337.28;6363506;22;8827;-85
2022/02/23 06:39:54;;;;;;;;;13.00;9.33;;;;;-146.37;100.00;59337.28;6363302;22;8754;-85
2022/02/23 06:45:47;;;;;;;;;12.50;12.50;;;;;-146.37;100.00;59337.28;6362562;22;8718;-84
2022/02/23 06:48:13;;;;;;;;;12.75;11.50;;;;;-146.37;100.00;59337.28;6363435;22;8749;-84
2022/02/23 06:50:39;;;;;;;;;12.00;12.00;;;;;-146.37;100.00;59337.28;6363063;22;8769;-84
2022/02/23 06:53:06;;;;;;;;;14.25;13.00;;;;;-146.37;100.00;59337.28;6331623;22;8692;-85
2022/02/23 06:55:33;;;;;;;;;21.25;16.75;;;;;-146.37;100.00;59337.28;6357403;22;8779;-84
2022/02/23 06:57:59;;;;;;;;;13.00;11.50;;;;;-146.37;100.00;59337.28;6333276;22;8739;-85
2022/02/23 07:00:25;;;;;;;;;17.67;14.00;;;;;-146.37;100.00;59337.28;6331900;22;8775;-85
2022/02/23 07:02:53;;;;;;;;;14.75;13.00;;;;;-146.37;100.00;59337.28;6331805;22;8842;-85
2022/02/23 07:05:19;;;;;;;;;21.50;17.50;;;;;-146.37;100.00;59337.28;6332925;22;8720;-85
2022/02/23 07:07:46;;;;;;;;;21.75;19.25;;;;;-146.37;100.00;59337.28;6357557;22;8699;-85
2022/02/23 07:10:32;;;;;;;;;23.50;20.00;;;;;-146.37;100.00;59337.28;6329631;22;8685;-85
2022/02/23 07:13:00;;;;;;;;;25.75;18.50;;;;;-146.37;100.00;59337.28;6329724;22;8827;-85
2022/02/23 07:15:26;;;;;;;;;18.50;17.50;;;;;-146.37;100.00;59337.28;6331450;22;8797;-85
2022/02/23 07:17:53;;;;;;;;;15.00;14.00;;;;;-146.37;100.00;59337.28;6358084;22;8684;-85
2022/02/23 07:20:21;;;;;;;;;24.75;18.50;;;;;-146.37;100.00;59337.28;6329233;22;8755;-85
2022/02/23 07:22:47;;;;;;;;;20.50;19.75;;;;;-146.37;100.00;59337.28;6354927;22;8704;-85
2022/02/23 07:25:13;;;;;;;;;20.00;17.33;;;;;-146.37;100.00;59337.28;6327689;22;8851;-85
2022/02/23 07:27:40;;;;;;;;;18.75;14.75;;;;;-146.37;100.00;59337.28;6326828;22;8781;-85
2022/02/23 07:30:08;;;;;;;;;26.50;23.00;;;;;-146.37;100.00;59337.28;6357450;22;9470;-85
2022/02/23 07:32:34;;;;;;;;;22.00;19.00;;;;;-146.37;100.00;59337.28;6358174;22;8855;-84
2022/02/23 07:35:02;;;;;;;;;21.67;20.67;;;;;-146.37;100.00;59337.28;6359905;22;8789;-84
2022/02/23 07:37:29;;;;;;;;;23.00;20.00;;;;;-146.37;100.00;59337.28;6336661;22;8762;-85
2022/02/23 07:40:23;;;;;;;;;20.00;18.50;;;;;-146.37;100.00;59337.28;6360816;22;8787;-85
2022/02/23 07:42:50;;;;;;;;;20.25;15.00;;;;;-146.37;100.00;59337.28;6335933;22;8748;-86
2022/02/23 07:45:16;;;;;;;;;25.00;22.67;;;;;-146.37;100.00;59337.28;6307292;22;8712;-85
2022/02/23 07:47:43;;;;;;;;;23.33;16.00;;;;;-146.37;100.00;59337.28;6332436;22;11409;-84
2022/02/23 07:50:12;;;;;;;;;27.50;20.25;;;;;-146.37;100.00;59337.28;6333402;22;8711;-84
2022/02/23 07:52:38;;;;;;;;;20.75;19.00;;;;;-146.37;100.00;59337.28;6359742;22;8752;-84
2022/02/23 07:55:06;;;;;;;;;16.50;15.50;;;;;-146.37;100.00;59337.28;6333821;22;9535;-85
2022/02/23 07:57:33;;;;;;;;;20.00;17.75;;;;;-146.37;100.00;59337.28;6332699;22;8849;-84
2022/02/23 07:59:58;;;;;;;;;18.50;16.25;;;;;-146.37;100.00;59337.28;6333722;22;8729;-85
2022/02/23 08:02:30;;;;;;;;;30.67;26.67;;;;;-146.37;100.00;59337.28;6335474;22;8851;-84
2022/02/23 08:05:09;;;;;;;;;20.00;19.50;;;;;-146.37;100.00;59337.28;6332069;22;9549;-83
2022/02/23 08:07:55;;;;;;;;;19.25;18.50;;;;;-146.37;100.00;59337.28;6329741;22;8698;-85
2022/02/23 08:10:28;;;;;;;;;18.25;14.25;;;;;-146.37;100.00;59337.28;6332486;22;8784;-85
2022/02/23 08:12:58;;;;;;;;;22.50;16.00;;;;;-146.37;100.00;59337.28;6333298;22;8712;-84
2022/02/23 08:20:58;;;;;;;;;21.00;16.50;;;;;-146.37;100.00;59337.28;6334364;22;8721;-86
2022/02/23 08:23:23;;;;;;;;;20.25;17.25;;;;;-146.37;100.00;59337.28;6308297;22;8745;-84
2022/02/23 08:25:56;;;;;;;;;25.25;17.25;;;;;-146.37;100.00;59337.28;6334068;22;8752;-84
2022/02/23 08:28:22;;;;;;;;;19.25;16.00;;;;;-146.37;100.00;59337.28;6281685;22;8689;-85
2022/02/23 08:30:47;;;;;;;;;16.00;14.67;;;;;-146.37;100.00;59337.28;6306503;22;8737;-84
2022/02/23 08:33:28;;;;;;;;;21.25;17.75;;;;;-146.37;100.00;59337.28;6332988;22;9446;-84
2022/02/23 08:36:05;;;;;;;;;14.00;13.25;;;;;-146.37;100.00;59337.28;6332528;22;8685;-85
2022/02/23 08:38:45;;;;;;;;;19.50;17.75;;;;;-146.37;100.00;59337.28;6298016;22;8684;-85
2022/02/23 08:41:15;;;;;;;;;20.00;18.25;;;;;-146.37;100.00;59337.28;6332528;22;8677;-85
2022/02/23 08:43:57;;;;;;;;;15.00;13.25;;;;;-146.37;100.00;59337.28;6336847;22;8703;-84
2022/02/23 08:46:29;;;;;;;;;20.00;18.00;;;;;-146.37;100.00;59337.28;6336625;22;8745;-85
2022/02/23 08:49:07;;;;;;;;;22.25;20.50;;;;;-146.37;100.00;59337.28;6310186;22;8693;-85
2022/02/23 08:51:57;;;;;;;;;15.00;14.00;;;;;-146.37;100.00;59337.28;6309497;22;8739;-86
2022/02/23 08:54:26;;;;;;;;;22.50;18.00;;;;;-146.37;100.00;59337.28;6350570;22;8757;-85
2022/02/23 08:56:56;;;;;;;;;23.00;21.00;;;;;-146.37;100.00;59337.28;6341005;22;8679;-86
2022/02/23 08:59:23;;;;;;;;;25.00;19.75;;;;;-146.37;100.00;59337.28;6338513;22;8783;-85
2022/02/23 09:02:07;;;;;;;;;28.00;21.25;;;;;-146.37;100.00;59337.28;6364743;22;8674;-86
2022/02/23 09:04:40;;;;;;;;;28.75;22.75;;;;;-146.37;100.00;59337.28;6366442;22;8726;-84
2022/02/23 09:07:10;;;;;;;;;21.50;21.00;;;;;-146.37;100.00;59337.28;6366578;22;8839;-83
2022/02/23 09:09:38;;;;;;;;;31.50;25.75;;;;;-146.37;100.00;59337.28;6338959;22;8729;-86
2022/02/23 09:12:07;;;;;;;;;23.50;22.75;;;;;-146.37;100.00;59337.28;6338709;22;8811;-85
2022/02/23 09:14:34;;;;;;;;;31.25;26.50;;;;;-146.37;100.00;59337.28;6312508;22;8754;-85
2022/02/23 09:20:22;;;;;;;;;22.50;22.50;;;;;-146.37;100.00;59337.28;6366567;22;8667;-85
2022/02/23 09:22:50;;;;;;;;;30.50;22.00;;;;;-146.37;100.00;59337.28;6339073;22;8738;-84
2022/02/23 09:25:17;;;;;;;;;25.25;21.50;;;;;-146.37;100.00;59337.28;6341083;22;8706;-84
2022/02/23 09:27:49;;;;;;;;;33.75;26.25;;;;;-146.37;100.00;59337.28;6341429;22;8746;-86
2022/02/23 09:30:30;;;;;;;;;30.50;26.00;;;;;-146.37;100.00;59337.28;6369504;22;8800;-87
2022/02/23 09:32:56;;;;;;;;;26.25;23.75;;;;;-146.37;100.00;59337.28;6368207;22;8746;-84
2022/02/23 09:35:29;;;;;;;;;32.50;28.00;;;;;-146.37;100.00;59337.28;6342274;22;8701;-87
2022/02/23 09:37:57;;;;;;;;;32.50;29.75;;;;;-146.37;100.00;59337.28;6342209;22;9142;-86
2022/02/23 09:40:52;;;;;;;;;28.00;25.75;;;;;-146.37;100.00;59337.28;6341918;22;8737;-86
2022/02/23 09:44:12;;;;;;;;;32.75;26.50;;;;;-146.37;100.00;59337.28;6368553;22;8706;-83
2022/02/23 09:46:47;;;;;;;;;33.75;24.00;;;;;-146.37;100.00;59337.28;6311811;22;8752;-82
2022/02/23 09:49:13;;;;;;;;;29.67;26.67;;;;;-146.37;100.00;59337.28;6365642;22;8745;-82
2022/02/23 09:51:39;;;;;;;;;35.33;29.67;;;;;-146.37;100.00;59337.28;6365154;22;8830;-83
2022/02/23 09:54:05;;;;;;;;;32.25;26.50;;;;;-146.37;100.00;59337.28;6340454;22;8775;-85
2022/02/23 09:56:32;;;;;;;;;33.00;28.33;;;;;-146.37;100.00;59337.28;6366682;22;8800;-84
2022/02/23 09:59:00;;;;;;;;;35.50;32.25;;;;;-146.37;100.00;59337.28;6367231;22;8685;-83
2022/02/23 10:01:30;;;;;;;;;31.00;28.25;;;;;-146.37;100.00;59337.28;6366166;22;8772;-83
2022/02/23 10:03:55;;;;;;;;;29.00;26.00;;;;;-146.37;100.00;59337.28;6339870;22;8726;-83
2022/02/23 10:06:30;;;;;;;;;32.33;25.00;;;;;-146.37;100.00;59337.28;6341209;22;8863;-83
2022/02/23 10:09:05;;;;;;;;;36.00;30.00;;;;;-146.37;100.00;59337.28;6389185;22;8747;-83
2022/02/23 10:11:34;;;;;;;;;39.25;35.00;;;;;-146.37;100.00;59337.28;6336912;22;8767;-83
2022/02/23 10:14:02;;;;;;;;;39.00;34.75;;;;;-146.37;100.00;59337.28;6338974;22;8739;-83
2022/02/23 10:16:51;;;;;;;;;33.25;30.50;;;;;-146.37;100.00;59337.28;6335283;22;8739;-82
2022/02/23 10:19:33;;;;;;;;;39.00;33.50;;;;;-146.37;100.00;59337.28;6335947;22;9450;-82
2022/02/23 10:22:05;;;;;;;;;29.25;28.25;;;;;-146.37;100.00;59337.28;6336401;22;8793;-85
2022/02/23 10:24:36;;;;;;;;;27.50;27.00;;;;;-146.37;100.00;59337.28;6307394;22;8831;-84
2022/02/23 10:27:15;;;;;;;;;33.25;29.75;;;;;-146.37;100.00;59337.28;6357600;22;8890;-83
2022/02/23 10:29:58;;;;;;;;;42.25;33.75;;;;;-146.37;100.00;59337.28;6360368;22;9717;-84
2022/02/23 10:32:31;;;;;;;;;41.75;35.25;;;;;-146.37;100.00;59337.28;6336429;22;8813;-83
2022/02/23 10:35:06;;;;;;;;;37.00;31.00;;;;;-146.37;100.00;59337.28;6335195;22;8925;-84
2022/02/23 10:37:31;;;;;;;;;40.50;33.25;;;;;-146.37;100.00;59337.28;6360923;22;8778;-83
2022/02/23 10:40:00;;;;;;;;;34.67;31.33;;;;;-146.37;100.00;59337.28;6335375;22;9128;-82
2022/02/23 10:42:38;;;;;;;;;32.50;30.25;;;;;-146.37;100.00;59337.28;6361988;22;9719;-82
2022/02/23 10:45:06;;;;;;;;;30.00;29.67;;;;;-146.37;100.00;59337.28;6338130;22;8758;-83
2022/02/23 10:47:43;;;;;;;;;37.00;31.25;;;;;-146.37;100.00;59337.28;6315402;22;8773;-83
2022/02/23 10:50:11;;;;;;;;;30.25;29.25;;;;;-146.37;100.00;59337.28;6394212;22;8686;-84
2022/02/23 10:52:39;;;;;;;;;22.75;22.25;;;;;-146.37;100.00;59337.28;6370003;22;8695;-84
2022/02/23 10:55:16;;;;;;;;;24.50;20.75;;;;;-146.37;100.00;59337.28;6342364;22;8750;-83
2022/02/23 10:58:05;;;;;;;;;12.00;11.00;;;;;-146.37;100.00;59337.28;6368202;22;8718;-86
2022/02/23 11:00:54;;;;;;;;;8.50;8.50;;;;;-146.37;100.00;59337.28;6368235;22;8750;-82
2022/02/23 11:03:29;;;;;;;;;5.75;4.00;;;;;-146.37;100.00;59337.28;6366188;22;8710;-86
2022/02/23 11:06:54;;;;;;;;;;;;;;;;;;;;;
2022/02/23 11:14:57;;;;;;;;;3.25;2.50;;;;;-146.37;100.00;59337.28;6350957;22;8942;-84
2022/02/23 11:17:24;;;;;;;;;4.25;4.25;;;;;-146.37;100.00;59337.28;6369294;22;8706;-85
2022/02/23 11:19:52;;;;;;;;;4.50;1.75;;;;;-146.37;100.00;59337.28;6365429;22;8810;-84
2022/02/23 11:22:29;;;;;;;;;1.00;1.00;;;;;-146.37;100.00;59337.28;6341968;22;8726;-86
2022/02/23 11:25:02;;;;;;;;;2.50;2.50;;;;;-146.37;100.00;59337.28;6367514;22;8707;-83
2022/02/23 11:27:35;;;;;;;;;3.25;2.50;;;;;-146.37;100.00;59337.28;6344829;22;8754;-85
2022/02/23 11:30:05;;;;;;;;;5.75;3.00;;;;;-146.37;100.00;59337.28;6367895;22;8852;-83
2022/02/23 11:32:41;;;;;;;;;3.50;2.50;;;;;-146.37;100.00;59337.28;6341639;22;8655;-84
2022/02/23 11:35:07;;;;;;;;;2.75;2.75;;;;;-146.37;100.00;59337.28;6364642;22;8699;-83
2022/02/23 11:37:34;;;;;;;;;2.00;2.00;;;;;-146.37;100.00;59337.28;6342645;22;8784;-84
2022/02/23 11:40:01;;;;;;;;;5.25;3.75;;;;;-146.37;100.00;59337.28;6343395;22;11373;-84